Waterville, ME

6:06 PM EST on February 01, 2015 (GMT -0500)
Mayflower Hill | Change Station
CLOSE
Current Station
Personal Weather Station
Location: Waterville, ME
Elevation: 292 ft
Nearby Weather Stations
Active Advisory: Winter Storm Warning

Elev 292 ft 44.56 °N, 69.66 °W | Updated 5 minutes ago

Clear
Clear
12.6 °F
Feels Like 6 °F
N
4.0
Wind Variable Wind from NW
Gusts 8.9 mph

Today
High -- | Low -- °F
--% Chance of Precip.
Yesterday
High -- | Low -- °F
Precip. -- in
6:57 AM 4:47 PM
Waxing Gibbous, 96% visible
Pressure 30.07 in
Visibility -9999.0 miles
Clouds Clear
Windchill 6 °F
Dew Point -8 °F
Humidity 41%
Rainfall -999.00 in
Snow Depth Not available.
UV 0 out of 12
Pollen .10 out of 12
Air Quality Not available.
Flu Activity Not available.
METAR KWVL 012255Z 30009KT CLR M12/M24 A3007 RMK AO1

More Conditions Fewer Conditions

Pressure 30.07 in
Visibility -9999.0 miles
Clouds Clear
Windchill 6 °F
Dew Point -8 °F
Humidity 41%
Rainfall -999.00 in
Snow Depth Not available.
UV 0 out of 12
Pollen .10 out of 12
Air Quality Not available.
Flu Activity Not available.
METAR KWVL 012255Z 30009KT CLR M12/M24 A3007 RMK AO1

More Conditions Fewer Conditions

10-Day Weather Forecast

Almanac

Astronomy

Feb. 01, 2015 Rise Set
Actual Time
Civil Twilight
Nautical Twilight
Astronomical Twilight
Moon
Length of Visible Light
Length of Day
Tomorrow will be .
, % of the Moon is Illuminated

Today's Extremes

State Highs State Lows

Community

WunderPhotos

Upload Photos

1,792,599 photos uploaded!

WunderBlogs® & News

Nearby

Air Quality

  Air Quality AQ Index Pollutant
Not available.

Snow Depth

Station Depth Elevation

Earthquake Activity

City Distance Mag. Time & Date
Minimum magnitude displayed is 2.5.

Coastal Water Temperatures

Place Temperature

Nearby Weather Stations